createdAt,value
2018-08-28T00:00:50.238Z,89.04
2018-08-28T00:01:50.227Z,89.04
2018-08-28T00:02:50.205Z,88.56
2018-08-28T00:03:50.201Z,88.84
2018-08-28T00:04:50.172Z,88.84
2018-08-28T00:05:50.159Z,88.17
2018-08-28T00:06:50.136Z,88.75
2018-08-28T00:07:50.120Z,88.75
2018-08-28T00:08:50.104Z,89.32
2018-08-28T00:09:50.085Z,89.04
2018-08-28T00:10:50.068Z,89.23
2018-08-28T00:11:50.049Z,89.32
2018-08-28T00:12:50.035Z,89.23
2018-08-28T00:13:50.028Z,89.04
2018-08-28T00:14:49.998Z,89.13
2018-08-28T00:15:49.982Z,89.32
2018-08-28T00:16:49.963Z,89.23
2018-08-28T00:17:49.948Z,88.65
2018-08-28T00:18:49.931Z,88.84
2018-08-28T00:19:49.912Z,89.42
2018-08-28T00:20:49.893Z,89.32
2018-08-28T00:21:49.877Z,88.94
2018-08-28T00:22:49.864Z,89.23
2018-08-28T00:23:49.847Z,89.23
2018-08-28T00:24:49.829Z,89.13
2018-08-28T00:25:49.808Z,88.94
2018-08-28T00:26:49.791Z,89.32
2018-08-28T00:27:49.777Z,89.51
2018-08-28T00:28:49.757Z,89.32
2018-08-28T00:29:49.747Z,89.42
2018-08-28T00:30:49.724Z,89.51
2018-08-28T00:31:49.711Z,89.61
2018-08-28T00:32:49.693Z,89.51
2018-08-28T00:33:49.670Z,89.23
2018-08-28T00:34:49.654Z,89.13
2018-08-28T00:35:49.639Z,89.23
2018-08-28T00:36:49.623Z,89.42
2018-08-28T00:37:49.603Z,89.23
2018-08-28T00:38:49.588Z,90.28
2018-08-28T00:39:49.579Z,89.42
2018-08-28T00:40:49.553Z,89.51
2018-08-28T00:41:49.537Z,89.51
2018-08-28T00:42:49.519Z,89.90
2018-08-28T00:43:49.499Z,90.00
2018-08-28T00:44:49.484Z,89.13
2018-08-28T00:45:49.465Z,89.51
2018-08-28T00:46:49.455Z,89.51
2018-08-28T00:47:49.436Z,90.00
2018-08-28T00:48:49.413Z,89.90
2018-08-28T00:49:49.398Z,89.32
2018-08-28T00:50:49.379Z,89.51
2018-08-28T00:51:49.361Z,89.61
2018-08-28T00:52:49.345Z,89.51
2018-08-28T00:53:49.331Z,89.90
2018-08-28T00:54:49.311Z,90.09
2018-08-28T00:55:49.305Z,90.09
2018-08-28T00:56:49.277Z,90.00
2018-08-28T00:57:49.263Z,89.90
2018-08-28T00:58:49.241Z,89.90
2018-08-28T00:59:49.225Z,90.09
2018-08-28T01:00:49.206Z,89.90
2018-08-28T01:01:49.187Z,90.19
2018-08-28T01:02:49.176Z,90.00
2018-08-28T01:03:49.155Z,89.80
2018-08-28T01:04:49.139Z,89.90
2018-08-28T01:05:49.119Z,90.47
2018-08-28T01:06:49.102Z,90.19
2018-08-28T01:07:49.087Z,90.00
2018-08-28T01:08:49.070Z,90.09
2018-08-28T01:09:49.053Z,90.19
2018-08-28T01:10:49.035Z,90.09
2018-08-28T01:11:49.016Z,90.09
2018-08-28T01:12:48.998Z,90.19
2018-08-28T01:13:48.981Z,90.09
2018-08-28T01:14:49.153Z,90.19
2018-08-28T01:15:48.949Z,89.90
2018-08-28T01:16:48.931Z,90.09
2018-08-28T01:17:48.912Z,89.90
2018-08-28T01:18:48.897Z,89.90
2018-08-28T01:19:48.882Z,90.86
2018-08-28T01:20:48.862Z,91.05
2018-08-28T01:21:48.843Z,91.34
2018-08-28T01:22:48.832Z,90.86
2018-08-28T01:23:48.817Z,90.86
2018-08-28T01:24:48.796Z,90.38
2018-08-28T01:25:48.777Z,91.05
2018-08-28T01:26:48.764Z,91.05
2018-08-28T01:27:48.744Z,90.67
2018-08-28T01:28:48.728Z,90.95
2018-08-28T01:29:48.706Z,90.57
2018-08-28T01:30:48.690Z,90.67
2018-08-28T01:31:48.679Z,91.05
2018-08-28T01:32:48.655Z,90.95
2018-08-28T01:33:48.640Z,90.76
2018-08-28T01:34:48.623Z,90.76
2018-08-28T01:35:48.604Z,91.34
2018-08-28T01:36:48.587Z,91.43
2018-08-28T01:37:48.570Z,91.24
2018-08-28T01:38:48.553Z,91.43
2018-08-28T01:39:48.536Z,91.53
2018-08-28T01:40:48.518Z,91.34
2018-08-28T01:41:48.509Z,91.34
2018-08-28T01:42:48.481Z,91.24
2018-08-28T01:43:48.468Z,91.82
2018-08-28T01:44:48.451Z,91.82
2018-08-28T01:45:48.438Z,91.34
2018-08-28T01:46:48.417Z,91.43
2018-08-28T01:47:48.397Z,91.43
2018-08-28T01:48:48.383Z,91.91
2018-08-28T01:49:48.365Z,91.43
2018-08-28T01:50:48.346Z,91.53
2018-08-28T01:51:48.329Z,91.82
2018-08-28T01:52:48.313Z,91.72
2018-08-28T01:53:48.294Z,91.53
2018-08-28T01:54:48.277Z,92.10
2018-08-28T01:55:48.261Z,92.01
2018-08-28T01:56:48.244Z,92.10
2018-08-28T01:57:48.230Z,92.01
2018-08-28T01:58:48.210Z,92.20
2018-08-28T01:59:48.194Z,92.20
2018-08-28T02:00:48.175Z,92.30
2018-08-28T02:01:48.161Z,92.20
2018-08-28T02:02:48.142Z,92.01
2018-08-28T02:03:48.125Z,92.20
2018-08-28T02:04:48.105Z,92.49
2018-08-28T02:05:48.090Z,92.97
2018-08-28T02:06:48.073Z,92.49
2018-08-28T02:07:48.056Z,92.30
2018-08-28T02:08:48.034Z,92.87
2018-08-28T02:09:48.016Z,92.58
2018-08-28T02:10:47.999Z,93.26
2018-08-28T02:11:47.983Z,92.87
2018-08-28T02:12:47.965Z,93.06
2018-08-28T02:13:47.949Z,93.06
2018-08-28T02:14:47.941Z,92.77
2018-08-28T02:15:47.913Z,93.26
2018-08-28T02:16:47.900Z,93.16
2018-08-28T02:17:47.880Z,92.68
2018-08-28T02:18:47.865Z,92.87
2018-08-28T02:19:47.847Z,93.26
2018-08-28T02:20:47.827Z,93.26
2018-08-28T02:21:47.814Z,93.06
2018-08-28T02:22:47.800Z,93.06
2018-08-28T02:23:47.777Z,93.26
2018-08-28T02:24:47.759Z,93.06
2018-08-28T02:25:47.742Z,92.87
2018-08-28T02:26:47.724Z,92.97
2018-08-28T02:27:47.708Z,92.87
2018-08-28T02:28:47.693Z,92.87
2018-08-28T02:29:47.674Z,92.97
2018-08-28T02:30:47.655Z,93.26
2018-08-28T02:31:47.641Z,93.06
2018-08-28T02:32:47.622Z,93.63
2018-08-28T02:33:47.656Z,93.26
2018-08-28T02:34:47.589Z,93.44
2018-08-28T02:35:47.570Z,93.93
2018-08-28T02:36:47.555Z,93.83
2018-08-28T02:37:47.537Z,93.63
2018-08-28T02:38:47.516Z,93.83
2018-08-28T02:39:47.514Z,94.02
2018-08-28T02:40:47.486Z,93.93
2018-08-28T02:41:47.468Z,93.54
2018-08-28T02:42:47.450Z,93.73
2018-08-28T02:43:47.432Z,93.83
2018-08-28T02:44:47.413Z,93.78
2018-08-28T02:45:47.394Z,94.31
2018-08-28T02:46:47.377Z,93.73
2018-08-28T02:47:47.364Z,94.02
2018-08-28T02:48:47.344Z,93.63
2018-08-28T02:49:47.329Z,93.88
2018-08-28T02:50:47.309Z,94.17
2018-08-28T02:51:47.300Z,93.83
2018-08-28T02:52:47.273Z,94.12
2018-08-28T02:53:47.260Z,93.93
2018-08-28T02:54:47.246Z,93.54
2018-08-28T02:55:47.222Z,93.73
2018-08-28T02:56:47.207Z,93.73
2018-08-28T02:57:47.192Z,94.12
2018-08-28T02:58:47.187Z,93.73
2018-08-28T02:59:47.155Z,93.93
2018-08-28T03:00:47.138Z,93.83
2018-08-28T03:01:47.120Z,94.12
2018-08-28T03:02:47.165Z,94.12
2018-08-28T03:03:47.091Z,94.31
2018-08-28T03:04:47.068Z,94.12
2018-08-28T03:05:47.053Z,94.31
2018-08-28T03:06:47.032Z,94.55
2018-08-28T03:07:47.018Z,94.64
2018-08-28T03:08:47.000Z,94.69
2018-08-28T03:09:46.994Z,94.89
2018-08-28T03:10:46.967Z,94.50
2018-08-28T03:11:46.950Z,94.50
2018-08-28T03:12:46.933Z,94.64
2018-08-28T03:13:46.912Z,94.93
2018-08-28T03:14:46.895Z,95.26
2018-08-28T03:15:46.887Z,94.55
2018-08-28T03:16:46.861Z,95.12
2018-08-28T03:17:46.842Z,95.36
2018-08-28T03:18:46.826Z,95.26
2018-08-28T03:19:46.808Z,95.56
2018-08-28T03:20:46.792Z,95.31
2018-08-28T03:21:46.774Z,95.56
2018-08-28T03:22:46.754Z,96.08
2018-08-28T03:23:46.738Z,96.13
2018-08-28T03:24:46.723Z,95.56
2018-08-28T03:25:46.709Z,95.46
2018-08-28T03:26:46.687Z,95.46
2018-08-28T03:27:46.671Z,95.31
2018-08-28T03:28:46.654Z,95.26
2018-08-28T03:29:46.636Z,95.65
2018-08-28T03:30:46.618Z,95.07
2018-08-28T03:31:46.602Z,95.46
2018-08-28T03:32:46.584Z,95.98
2018-08-28T03:33:46.568Z,96.03
2018-08-28T03:34:46.550Z,96.27
2018-08-28T03:35:46.531Z,96.27
2018-08-28T03:36:46.514Z,95.98
2018-08-28T03:37:46.497Z,96.27
2018-08-28T03:38:46.477Z,96.08
2018-08-28T03:39:46.469Z,95.89
2018-08-28T03:40:46.444Z,96.47
2018-08-28T03:41:46.427Z,95.89
2018-08-28T03:42:46.409Z,96.18
2018-08-28T03:43:46.394Z,96.03
2018-08-28T03:44:46.428Z,96.32
2018-08-28T03:45:46.361Z,96.22
2018-08-28T03:46:46.340Z,96.32
2018-08-28T03:47:46.324Z,96.22
2018-08-28T03:48:46.307Z,96.03
2018-08-28T03:49:46.288Z,96.32
2018-08-28T03:50:46.277Z,96.13
2018-08-28T03:51:46.259Z,96.13
2018-08-28T03:52:46.237Z,95.89
2018-08-28T03:53:46.221Z,96.51
2018-08-28T03:54:46.204Z,96.13
2018-08-28T03:55:46.184Z,95.94
2018-08-28T03:56:46.166Z,96.13
2018-08-28T03:57:46.151Z,96.66
2018-08-28T03:58:46.135Z,97.09
2018-08-28T03:59:46.116Z,96.03
2018-08-28T04:00:46.098Z,96.13
2018-08-28T04:01:46.085Z,95.79
2018-08-28T04:02:46.062Z,96.32
2018-08-28T04:03:46.132Z,96.51
2018-08-28T04:04:46.031Z,96.18
2018-08-28T04:05:46.013Z,96.51
2018-08-28T04:06:45.995Z,96.22
2018-08-28T04:07:45.980Z,95.94
2018-08-28T04:08:45.963Z,96.03
2018-08-28T04:09:45.949Z,96.22
2018-08-28T04:10:45.926Z,96.13
2018-08-28T04:11:45.910Z,96.80
2018-08-28T04:12:45.894Z,96.61
2018-08-28T04:13:45.874Z,96.70
2018-08-28T04:14:45.859Z,96.70
2018-08-28T04:15:45.841Z,97.66
2018-08-28T04:16:45.823Z,97.28
2018-08-28T04:17:45.808Z,97.80
2018-08-28T04:18:45.797Z,96.99
2018-08-28T04:19:45.774Z,97.52
2018-08-28T04:20:45.758Z,97.52
2018-08-28T04:21:45.738Z,97.14
2018-08-28T04:22:45.727Z,97.61
2018-08-28T04:23:45.712Z,96.94
2018-08-28T04:24:45.688Z,97.71
2018-08-28T04:25:45.669Z,97.90
2018-08-28T04:26:45.661Z,97.14
2018-08-28T04:27:45.635Z,98.00
2018-08-28T04:28:45.618Z,98.00
2018-08-28T04:29:45.600Z,98.10
2018-08-28T04:30:45.610Z,98.38
2018-08-28T04:31:45.570Z,98.76
2018-08-28T04:32:45.551Z,98.38
2018-08-28T04:33:45.534Z,98.76
2018-08-28T04:34:45.513Z,97.71
2018-08-28T04:35:45.497Z,98.57
2018-08-28T04:36:45.478Z,98.10
2018-08-28T04:37:45.462Z,98.57
2018-08-28T04:38:45.445Z,98.96
2018-08-28T04:39:45.426Z,99.15
2018-08-28T04:40:45.412Z,99.43
2018-08-28T04:41:45.399Z,98.96
2018-08-28T04:42:45.376Z,98.96
2018-08-28T04:43:45.359Z,98.96
2018-08-28T04:44:45.349Z,98.38
2018-08-28T04:45:45.322Z,99.05
2018-08-28T04:46:45.310Z,98.57
2018-08-28T04:47:45.290Z,98.38
2018-08-28T04:48:45.278Z,98.57
2018-08-28T04:49:45.254Z,98.57
2018-08-28T04:50:45.237Z,99.15
2018-08-28T04:51:45.225Z,98.86
2018-08-28T04:52:45.205Z,98.86
2018-08-28T04:53:45.184Z,99.15
2018-08-28T04:54:45.198Z,99.15
2018-08-28T04:55:45.153Z,99.24
2018-08-28T04:56:45.133Z,98.67
2018-08-28T04:57:45.117Z,98.86
2018-08-28T04:58:45.100Z,98.38
2018-08-28T04:59:45.090Z,98.96
2018-08-28T05:00:45.154Z,98.57
2018-08-28T05:01:45.047Z,98.47
2018-08-28T05:02:45.037Z,98.57
2018-08-28T05:03:45.012Z,98.86
2018-08-28T05:04:44.996Z,98.47
2018-08-28T05:05:44.976Z,98.86
2018-08-28T05:06:44.962Z,98.72
2018-08-28T05:07:44.947Z,98.86
2018-08-28T05:08:44.931Z,98.91
2018-08-28T05:09:44.909Z,99.01
2018-08-28T05:10:44.892Z,99.29
2018-08-28T05:11:44.879Z,99.39
2018-08-28T05:12:44.860Z,99.24
2018-08-28T05:13:44.842Z,99.19
2018-08-28T05:14:44.823Z,99.48
2018-08-28T05:15:44.833Z,99.48
2018-08-28T05:16:44.789Z,99.87
2018-08-28T05:17:44.783Z,99.99
2018-08-28T05:18:44.754Z,99.82
2018-08-28T05:19:44.738Z,99.99
2018-08-28T05:20:44.723Z,99.82
2018-08-28T05:21:44.708Z,99.99
2018-08-28T05:22:44.685Z,99.99
2018-08-28T05:23:44.668Z,99.99
2018-08-28T05:24:44.651Z,99.99
2018-08-28T05:25:44.632Z,99.99
2018-08-28T05:26:44.615Z,99.99
2018-08-28T05:27:44.600Z,99.99
2018-08-28T05:28:44.583Z,99.96
2018-08-28T05:29:44.609Z,99.99
2018-08-28T05:30:44.559Z,99.99
2018-08-28T05:31:44.533Z,99.99
2018-08-28T05:32:44.515Z,99.99
2018-08-28T05:33:44.497Z,99.99
2018-08-28T05:34:44.479Z,99.99
2018-08-28T05:35:44.463Z,99.99
2018-08-28T05:36:44.455Z,99.99
2018-08-28T05:37:44.426Z,99.99
2018-08-28T05:38:44.410Z,99.99
2018-08-28T05:39:44.397Z,99.99
2018-08-28T05:40:44.377Z,99.99
2018-08-28T05:41:44.815Z,99.99
2018-08-28T05:42:44.345Z,99.77
2018-08-28T05:43:44.326Z,99.77
2018-08-28T05:44:44.318Z,99.87
2018-08-28T05:45:44.300Z,99.96
2018-08-28T05:46:44.277Z,99.39
2018-08-28T05:47:44.258Z,99.99
2018-08-28T05:48:44.242Z,99.99
2018-08-28T05:49:44.224Z,99.99
2018-08-28T05:50:44.209Z,99.96
2018-08-28T05:51:44.187Z,99.99
2018-08-28T05:52:44.174Z,99.87
2018-08-28T05:53:44.154Z,99.99
2018-08-28T05:54:44.139Z,99.87
2018-08-28T05:55:44.130Z,99.68
2018-08-28T05:56:44.121Z,99.96
2018-08-28T05:57:44.093Z,99.48
2018-08-28T05:58:44.072Z,99.99
2018-08-28T05:59:44.053Z,99.99
2018-08-28T06:00:44.034Z,99.99
2018-08-28T06:01:44.017Z,99.99
2018-08-28T06:02:43.998Z,99.99
2018-08-28T06:03:43.982Z,99.99
2018-08-28T06:04:43.965Z,99.68
2018-08-28T06:05:43.953Z,99.87
2018-08-28T06:06:43.934Z,99.91
2018-08-28T06:07:43.916Z,99.99
2018-08-28T06:08:43.906Z,99.99
2018-08-28T06:09:43.878Z,99.96
2018-08-28T06:10:43.866Z,99.99
2018-08-28T06:11:43.851Z,99.91
2018-08-28T06:12:43.839Z,99.99
2018-08-28T06:13:43.813Z,99.73
2018-08-28T06:14:43.806Z,99.15
2018-08-28T06:15:43.775Z,99.24
2018-08-28T06:16:43.760Z,99.73
2018-08-28T06:17:43.741Z,99.34
2018-08-28T06:18:43.725Z,99.53
2018-08-28T06:19:43.716Z,98.86
2018-08-28T06:20:43.691Z,98.96
2018-08-28T06:21:43.672Z,98.77
2018-08-28T06:22:43.658Z,98.67
2018-08-28T06:23:43.638Z,98.67
2018-08-28T06:24:43.622Z,98.38
2018-08-28T06:25:43.607Z,98.28
2018-08-28T06:26:43.589Z,98.48
2018-08-28T06:27:43.572Z,98.28
2018-08-28T06:28:43.562Z,98.38
2018-08-28T06:29:43.537Z,99.15
2018-08-28T06:30:43.529Z,99.15
2018-08-28T06:31:43.508Z,99.15
2018-08-28T06:32:43.488Z,99.44
2018-08-28T06:33:43.478Z,99.34
2018-08-28T06:34:43.454Z,99.99
2018-08-28T06:35:43.437Z,99.73
2018-08-28T06:36:43.430Z,99.73
2018-08-28T06:37:43.409Z,99.53
2018-08-28T06:38:43.387Z,98.86
2018-08-28T06:39:43.368Z,99.15
2018-08-28T06:40:43.363Z,98.67
2018-08-28T06:41:43.335Z,98.48
2018-08-28T06:42:43.327Z,98.57
2018-08-28T06:43:43.343Z,98.57
2018-08-28T06:44:43.287Z,98.57
2018-08-28T06:45:43.268Z,98.96
2018-08-28T06:46:43.252Z,99.05
2018-08-28T06:47:43.232Z,98.77
2018-08-28T06:48:43.219Z,99.44
2018-08-28T06:49:43.305Z,98.43
2018-08-28T06:50:43.196Z,99.01
2018-08-28T06:51:43.163Z,98.72
2018-08-28T06:52:43.146Z,98.43
2018-08-28T06:53:43.134Z,98.33
2018-08-28T06:54:43.117Z,98.19
2018-08-28T06:55:43.097Z,98.62
2018-08-28T06:56:43.138Z,98.24
2018-08-28T06:57:43.066Z,98.82
2018-08-28T06:58:43.054Z,98.82
2018-08-28T06:59:43.029Z,98.33
2018-08-28T07:00:43.020Z,98.82
2018-08-28T07:01:42.994Z,99.29
2018-08-28T07:02:42.977Z,98.33
2018-08-28T07:03:43.006Z,98.43
2018-08-28T07:04:42.944Z,98.82
2018-08-28T07:05:42.935Z,98.86
2018-08-28T07:06:42.911Z,99.39
2018-08-28T07:07:42.893Z,99.96
2018-08-28T07:08:42.877Z,98.91
2018-08-28T07:09:42.860Z,98.62
2018-08-28T07:10:42.845Z,98.53
2018-08-28T07:11:42.827Z,99.87
2018-08-28T07:12:42.808Z,99.96
2018-08-28T07:13:42.798Z,99.68
2018-08-28T07:14:42.776Z,99.49
2018-08-28T07:15:42.758Z,98.43
2018-08-28T07:16:42.741Z,98.72
2018-08-28T07:17:42.721Z,98.82
2018-08-28T07:18:42.736Z,99.87
2018-08-28T07:19:42.691Z,99.20
2018-08-28T07:20:42.683Z,99.29
2018-08-28T07:21:42.655Z,99.68
2018-08-28T07:22:42.638Z,99.01
2018-08-28T07:23:42.620Z,99.77
2018-08-28T07:24:42.613Z,99.87
2018-08-28T07:25:42.644Z,99.29
2018-08-28T07:26:42.570Z,98.72
2018-08-28T07:27:42.555Z,99.10
2018-08-28T07:28:42.537Z,98.91
2018-08-28T07:29:42.527Z,99.10
2018-08-28T07:30:42.503Z,99.77
2018-08-28T07:31:42.560Z,99.58
2018-08-28T07:32:42.471Z,99.77
2018-08-28T07:33:42.459Z,98.53
2018-08-28T07:34:42.439Z,99.29
2018-08-28T07:35:42.422Z,99.20
2018-08-28T07:36:42.401Z,99.99
2018-08-28T07:37:42.384Z,99.99
2018-08-28T07:38:42.367Z,99.68
2018-08-28T07:39:42.352Z,99.82
2018-08-28T07:40:42.334Z,98.43
2018-08-28T07:41:42.324Z,98.38
2018-08-28T07:42:42.373Z,98.38
2018-08-28T07:43:42.294Z,98.10
2018-08-28T07:44:42.267Z,98.38
2018-08-28T07:45:42.248Z,97.71
2018-08-28T07:46:42.233Z,97.14
2018-08-28T07:47:42.216Z,97.91
2018-08-28T07:48:42.212Z,97.24
2018-08-28T07:49:42.181Z,97.33
2018-08-28T07:50:42.170Z,98.00
2018-08-28T07:51:42.148Z,97.04
2018-08-28T07:52:42.140Z,97.24
2018-08-28T07:53:42.165Z,97.14
2018-08-28T07:54:42.104Z,97.24
2018-08-28T07:55:42.084Z,96.85
2018-08-28T07:56:42.065Z,96.47
2018-08-28T07:57:42.046Z,97.24
2018-08-28T07:58:42.030Z,96.56
2018-08-28T07:59:42.014Z,97.24
2018-08-28T08:00:42.004Z,97.42
2018-08-28T08:01:41.980Z,97.14
2018-08-28T08:02:41.964Z,96.47
2018-08-28T08:03:41.946Z,96.75
2018-08-28T08:04:41.935Z,96.37
2018-08-28T08:05:41.915Z,96.56
2018-08-28T08:06:41.901Z,95.60
2018-08-28T08:07:41.936Z,96.37
2018-08-28T08:08:41.867Z,96.47
2018-08-28T08:09:41.848Z,96.22
2018-08-28T08:10:41.829Z,96.03
2018-08-28T08:11:41.813Z,95.07
2018-08-28T08:12:41.796Z,95.03
2018-08-28T08:13:41.779Z,95.84
2018-08-28T08:14:41.771Z,95.94
2018-08-28T08:15:41.806Z,96.42
2018-08-28T08:16:41.734Z,97.57
2018-08-28T08:17:41.712Z,96.13
2018-08-28T08:18:41.700Z,95.45
2018-08-28T08:19:41.679Z,95.84
2018-08-28T08:20:41.664Z,95.17
2018-08-28T08:21:41.667Z,94.69
2018-08-28T08:22:41.630Z,94.69
2018-08-28T08:23:41.617Z,94.49
2018-08-28T08:24:41.597Z,95.17
2018-08-28T08:25:41.580Z,95.40
2018-08-28T08:26:41.565Z,94.40
2018-08-28T08:27:41.613Z,94.45
2018-08-28T08:28:41.533Z,94.16
2018-08-28T08:29:41.516Z,94.35
2018-08-28T08:30:41.503Z,94.83
2018-08-28T08:31:41.481Z,93.01
2018-08-28T08:32:41.466Z,93.19
2018-08-28T08:33:41.454Z,92.62
2018-08-28T08:34:41.437Z,93.58
2018-08-28T08:35:41.428Z,93.58
2018-08-28T08:36:41.401Z,94.35
2018-08-28T08:37:41.386Z,93.01
2018-08-28T08:38:41.367Z,92.91
2018-08-28T08:39:41.360Z,91.75
2018-08-28T08:40:41.334Z,91.99
2018-08-28T08:41:41.318Z,92.38
2018-08-28T08:42:41.305Z,91.42
2018-08-28T08:43:41.296Z,90.55
2018-08-28T08:44:41.275Z,91.32
2018-08-28T08:45:41.260Z,91.71
2018-08-28T08:46:41.239Z,90.75
2018-08-28T08:47:41.223Z,90.75
2018-08-28T08:48:41.208Z,90.84
2018-08-28T08:49:41.197Z,91.61
2018-08-28T08:50:41.184Z,90.75
2018-08-28T08:51:41.180Z,89.69
2018-08-28T08:52:41.145Z,90.07
2018-08-28T08:53:41.125Z,90.79
2018-08-28T08:54:41.170Z,90.59
2018-08-28T08:55:41.098Z,90.89
2018-08-28T08:56:41.098Z,89.35
2018-08-28T08:57:41.064Z,89.35
2018-08-28T08:58:41.050Z,88.48
2018-08-28T08:59:41.032Z,90.21
2018-08-28T09:00:41.028Z,89.64
2018-08-28T09:01:41.001Z,89.44
2018-08-28T09:02:41.000Z,89.73
2018-08-28T09:03:40.971Z,88.77
2018-08-28T09:04:40.960Z,87.90
2018-08-28T09:05:40.939Z,88.87
2018-08-28T09:06:40.926Z,90.12
2018-08-28T09:07:40.909Z,89.35
2018-08-28T09:08:40.894Z,89.35
2018-08-28T09:09:40.876Z,88.96
2018-08-28T09:10:40.858Z,88.62
2018-08-28T09:11:40.844Z,88.96
2018-08-28T09:12:40.839Z,87.71
2018-08-28T09:13:40.817Z,87.62
2018-08-28T09:14:40.797Z,88.29
2018-08-28T09:15:40.779Z,88.19
2018-08-28T09:16:40.783Z,87.04
2018-08-28T09:17:40.750Z,87.13
2018-08-28T09:18:40.731Z,87.13
2018-08-28T09:19:40.719Z,88.04
2018-08-28T09:20:40.708Z,86.41
2018-08-28T09:21:40.688Z,86.41
2018-08-28T09:22:40.669Z,89.01
2018-08-28T09:23:40.652Z,85.93
2018-08-28T09:24:40.639Z,85.74
2018-08-28T09:25:40.625Z,85.83
2018-08-28T09:26:40.619Z,85.98
2018-08-28T09:27:40.610Z,86.41
2018-08-28T09:28:40.577Z,86.60
2018-08-28T09:29:40.561Z,86.46
2018-08-28T09:30:40.545Z,87.85
2018-08-28T09:31:40.592Z,86.51
2018-08-28T09:32:40.520Z,86.51
2018-08-28T09:33:40.502Z,85.64
2018-08-28T09:34:40.489Z,85.44
2018-08-28T09:35:40.468Z,85.44
2018-08-28T09:36:40.452Z,84.29
2018-08-28T09:37:40.435Z,84.39
2018-08-28T09:38:40.459Z,85.25
2018-08-28T09:39:40.404Z,84.87
2018-08-28T09:40:40.393Z,85.06
2018-08-28T09:41:40.373Z,85.93
2018-08-28T09:42:40.357Z,85.44
2018-08-28T09:43:40.367Z,85.83
2018-08-28T09:44:40.324Z,84.19
2018-08-28T09:45:40.308Z,83.33
2018-08-28T09:46:40.299Z,83.33
2018-08-28T09:47:40.277Z,83.81
2018-08-28T09:48:40.261Z,84.29
2018-08-28T09:49:40.252Z,84.29
2018-08-28T09:50:40.298Z,84.19
2018-08-28T09:51:40.217Z,83.91
2018-08-28T09:52:40.200Z,83.72
2018-08-28T09:53:40.184Z,84.00
2018-08-28T09:54:40.167Z,84.19
2018-08-28T09:55:40.153Z,83.81
2018-08-28T09:56:40.242Z,83.66
2018-08-28T09:57:40.122Z,83.85
2018-08-28T09:58:40.105Z,82.70
2018-08-28T09:59:40.112Z,82.12
2018-08-28T10:00:40.088Z,82.70
2018-08-28T10:01:40.069Z,81.45
2018-08-28T10:02:40.050Z,81.54
2018-08-28T10:03:40.028Z,82.12
2018-08-28T10:04:40.024Z,82.21
2018-08-28T10:05:40.007Z,80.38
2018-08-28T10:06:39.988Z,80.25
2018-08-28T10:07:39.998Z,80.83
2018-08-28T10:08:39.954Z,82.65
2018-08-28T10:09:39.936Z,82.94
2018-08-28T10:10:39.922Z,82.94
2018-08-28T10:11:39.907Z,83.04
2018-08-28T10:12:39.896Z,83.04
2018-08-28T10:13:39.882Z,83.33
2018-08-28T10:14:39.858Z,83.42
2018-08-28T10:15:39.840Z,82.08
2018-08-28T10:16:39.825Z,83.14
2018-08-28T10:17:39.815Z,82.27
2018-08-28T10:18:39.797Z,80.58
2018-08-28T10:19:39.779Z,80.68
2018-08-28T10:20:39.764Z,80.15
2018-08-28T10:21:39.753Z,80.25
2018-08-28T10:22:39.730Z,81.30
2018-08-28T10:23:39.719Z,80.63
2018-08-28T10:24:39.705Z,81.30
2018-08-28T10:25:39.684Z,81.40
2018-08-28T10:26:39.668Z,80.54
2018-08-28T10:27:39.670Z,81.60
2018-08-28T10:28:39.643Z,82.75
2018-08-28T10:29:39.626Z,82.17
2018-08-28T10:30:39.608Z,81.40
2018-08-28T10:31:39.591Z,81.88
2018-08-28T10:32:39.576Z,82.37
2018-08-28T10:33:39.566Z,80.73
2018-08-28T10:34:39.543Z,79.19
2018-08-28T10:35:39.535Z,79.38
2018-08-28T10:36:39.513Z,77.26
2018-08-28T10:37:39.496Z,77.08
2018-08-28T10:38:39.481Z,77.33
2018-08-28T10:39:39.465Z,78.71
2018-08-28T10:40:39.455Z,78.81
2018-08-28T10:41:39.434Z,79.28
2018-08-28T10:42:39.418Z,78.90
2018-08-28T10:43:39.407Z,79.38
2018-08-28T10:44:39.386Z,78.71
2018-08-28T10:45:39.376Z,78.33
2018-08-28T10:46:39.413Z,77.56
2018-08-28T10:47:39.342Z,78.71
2018-08-28T10:48:39.324Z,77.84
2018-08-28T10:49:39.310Z,77.17
2018-08-28T10:50:39.295Z,77.36
2018-08-28T10:51:39.278Z,78.23
2018-08-28T10:52:39.261Z,77.75
2018-08-28T10:53:39.248Z,77.94
2018-08-28T10:54:39.228Z,77.46
2018-08-28T10:55:39.218Z,77.94
2018-08-28T10:56:39.201Z,78.33
2018-08-28T10:57:39.181Z,78.90
2018-08-28T10:58:39.187Z,78.13
2018-08-28T10:59:39.153Z,78.71
2018-08-28T11:00:39.137Z,79.00
2018-08-28T11:01:39.121Z,78.03
2018-08-28T11:02:39.105Z,77.46
2018-08-28T11:03:39.088Z,77.94
2018-08-28T11:04:39.236Z,77.75
2018-08-28T11:05:39.056Z,77.46
2018-08-28T11:06:39.041Z,77.84
2018-08-28T11:07:39.035Z,78.33
2018-08-28T11:08:39.026Z,78.03
2018-08-28T11:09:38.994Z,77.21
2018-08-28T11:10:38.989Z,76.44
2018-08-28T11:11:38.964Z,76.92
2018-08-28T11:12:38.952Z,77.11
2018-08-28T11:13:38.941Z,76.63
2018-08-28T11:14:38.916Z,77.11
2018-08-28T11:15:38.900Z,76.25
2018-08-28T11:16:38.887Z,76.15
2018-08-28T11:17:38.871Z,75.90
2018-08-28T11:18:38.855Z,75.99
2018-08-28T11:19:38.852Z,77.06
2018-08-28T11:20:38.833Z,76.28
2018-08-28T11:21:38.813Z,76.09
2018-08-28T11:22:38.796Z,76.28
2018-08-28T11:23:38.782Z,74.45
2018-08-28T11:24:38.766Z,75.36
2018-08-28T11:25:38.750Z,75.55
2018-08-28T11:26:38.735Z,74.62
2018-08-28T11:27:38.742Z,73.66
2018-08-28T11:28:38.705Z,73.47
2018-08-28T11:29:38.701Z,73.66
2018-08-28T11:30:38.677Z,73.24
2018-08-28T11:31:38.667Z,74.01
2018-08-28T11:32:38.647Z,72.37
2018-08-28T11:33:38.635Z,72.31
2018-08-28T11:34:38.622Z,72.12
2018-08-28T11:35:38.637Z,70.76
2018-08-28T11:36:38.590Z,69.03
2018-08-28T11:37:38.572Z,70.35
2018-08-28T11:38:38.556Z,71.50
2018-08-28T11:39:38.558Z,72.95
2018-08-28T11:40:38.535Z,72.75
2018-08-28T11:41:38.513Z,71.60
2018-08-28T11:42:38.498Z,70.06
2018-08-28T11:43:38.482Z,70.25
2018-08-28T11:44:38.469Z,68.52
2018-08-28T11:45:38.456Z,70.25
2018-08-28T11:46:38.437Z,70.02
2018-08-28T11:47:38.422Z,70.50
2018-08-28T11:48:38.420Z,70.79
2018-08-28T11:49:38.393Z,69.64
2018-08-28T11:50:38.373Z,69.15
2018-08-28T11:51:38.361Z,69.73
2018-08-28T11:52:38.436Z,68.96
2018-08-28T11:53:38.329Z,69.64
2018-08-28T11:54:38.314Z,69.15
2018-08-28T11:55:38.303Z,69.35
2018-08-28T11:56:38.291Z,69.87
2018-08-28T11:57:38.283Z,69.77
2018-08-28T11:58:38.255Z,68.61
2018-08-28T11:59:38.249Z,69.13
2018-08-28T12:00:38.225Z,67.00
2018-08-28T12:01:38.222Z,67.00
2018-08-28T12:02:38.197Z,66.24
2018-08-28T12:03:38.183Z,66.04
2018-08-28T12:04:38.182Z,66.62
2018-08-28T12:05:38.154Z,66.72
2018-08-28T12:06:38.158Z,66.62
2018-08-28T12:07:38.148Z,66.62
2018-08-28T12:08:38.112Z,66.72
2018-08-28T12:09:38.104Z,69.32
2018-08-28T12:10:38.089Z,66.52
2018-08-28T12:11:38.069Z,66.72
2018-08-28T12:12:38.053Z,67.20
2018-08-28T12:13:38.041Z,67.10
2018-08-28T12:14:38.026Z,67.62
2018-08-28T12:15:38.011Z,66.85
2018-08-28T12:16:37.997Z,67.04
2018-08-28T12:17:37.990Z,65.78
2018-08-28T12:18:37.978Z,65.34
2018-08-28T12:19:37.966Z,65.11
2018-08-28T12:20:37.943Z,64.24
2018-08-28T12:21:37.925Z,65.98
2018-08-28T12:22:37.914Z,64.53
2018-08-28T12:23:37.896Z,64.59
2018-08-28T12:24:37.885Z,64.69
2018-08-28T12:25:37.872Z,63.92
2018-08-28T12:26:37.948Z,64.79
2018-08-28T12:27:37.839Z,65.85
2018-08-28T12:28:37.828Z,66.14
2018-08-28T12:29:37.880Z,65.37
2018-08-28T12:30:37.796Z,65.88
2018-08-28T12:31:37.782Z,65.88
2018-08-28T12:32:37.769Z,64.72
2018-08-28T12:33:37.752Z,64.92
2018-08-28T12:34:37.739Z,64.05
2018-08-28T12:35:37.729Z,63.95
2018-08-28T12:36:37.738Z,62.89
2018-08-28T12:37:37.710Z,63.47
2018-08-28T12:38:37.681Z,64.21
2018-08-28T12:39:37.678Z,63.73
2018-08-28T12:40:37.655Z,64.11
2018-08-28T12:41:37.640Z,64.59
2018-08-28T12:42:37.634Z,64.56
2018-08-28T12:43:37.617Z,66.04
2018-08-28T12:44:37.601Z,65.95
2018-08-28T12:45:37.590Z,64.89
2018-08-28T12:46:37.578Z,66.04
2018-08-28T12:47:37.557Z,65.95
2018-08-28T12:48:37.541Z,66.04
2018-08-28T12:49:37.533Z,65.75
2018-08-28T12:50:37.518Z,66.14
2018-08-28T12:51:37.502Z,65.37
2018-08-28T12:52:37.501Z,65.59